createdAt,value
2022-11-03T00:01:13.341Z,100463.78
2022-11-03T00:03:41.060Z,100464.41
2022-11-03T00:06:09.043Z,100468.06
2022-11-03T00:08:39.485Z,100465.53
2022-11-03T00:11:10.199Z,100457.66
2022-11-03T00:13:38.791Z,100456.78
2022-11-03T00:16:09.487Z,100452.13
2022-11-03T00:18:40.913Z,100448.38
2022-11-03T00:21:09.864Z,100454.34
2022-11-03T00:23:39.816Z,100443.97
2022-11-03T00:26:09.381Z,100440.84
2022-11-03T00:28:37.749Z,100436.84
2022-11-03T00:31:08.389Z,100429.66
2022-11-03T00:33:36.598Z,100430.78
2022-11-03T00:36:04.528Z,100421.13
2022-11-03T00:38:32.719Z,100419.97
2022-11-03T00:41:02.737Z,100416.88
2022-11-03T00:43:31.538Z,100411.72
2022-11-03T00:45:59.423Z,100405.81
2022-11-03T00:48:34.133Z,100402.09
2022-11-03T00:51:06.165Z,100399.25
2022-11-03T00:53:34.657Z,100390.94
2022-11-03T00:56:04.732Z,100392.81
2022-11-03T00:58:33.315Z,100390.28
2022-11-03T01:01:05.893Z,100384.78
2022-11-03T01:03:37.460Z,100393.38
2022-11-03T01:06:24.491Z,100391.06
2022-11-03T01:08:52.332Z,100386.94
2022-11-03T01:11:39.799Z,100390.28
2022-11-03T01:14:10.421Z,100386.09
2022-11-03T01:16:39.071Z,100382.06
2022-11-03T01:19:07.100Z,100377.88
2022-11-03T01:21:34.780Z,100374.94
2022-11-03T01:24:04.450Z,100367.53
2022-11-03T01:26:33.506Z,100362.16
2022-11-03T01:29:01.506Z,100367.84
2022-11-03T01:31:29.567Z,100372.44
2022-11-03T01:33:57.545Z,100355.94
2022-11-03T01:36:25.526Z,100364.16
2022-11-03T01:38:54.655Z,100354.75
2022-11-03T01:41:24.514Z,100356.56
2022-11-03T01:44:14.090Z,100358.28
2022-11-03T01:46:43.873Z,100359.22
2022-11-03T01:49:15.734Z,100357.66
2022-11-03T01:51:44.572Z,100355.69
2022-11-03T01:54:14.043Z,100348.88
2022-11-03T01:56:43.085Z,100348.66
2022-11-03T01:59:12.385Z,100345.50
2022-11-03T02:01:41.404Z,100343.97
2022-11-03T02:04:11.334Z,100346.22
2022-11-03T02:06:39.237Z,100345.22
2022-11-03T02:09:08.538Z,100341.13
2022-11-03T02:11:54.686Z,100332.69
2022-11-03T02:14:24.032Z,100334.50
2022-11-03T02:16:54.425Z,100327.25
2022-11-03T02:19:27.961Z,100315.72
2022-11-03T02:22:01.276Z,100302.03
2022-11-03T02:24:32.492Z,100296.75
2022-11-03T02:27:01.748Z,100288.97
2022-11-03T02:29:29.587Z,100285.44
2022-11-03T02:32:02.212Z,100286.34
2022-11-03T02:34:33.182Z,100284.91
2022-11-03T02:37:04.798Z,100277.16
2022-11-03T02:39:35.722Z,100277.94
2022-11-03T02:42:06.336Z,100276.06
2022-11-03T02:44:35.633Z,100279.56
2022-11-03T02:47:05.521Z,100277.88
2022-11-03T02:49:33.222Z,100280.69
2022-11-03T02:52:01.437Z,100271.53
2022-11-03T02:54:32.488Z,100265.28
2022-11-03T02:57:02.844Z,100261.38
2022-11-03T02:59:33.125Z,100255.31
2022-11-03T03:02:05.042Z,100247.47
2022-11-03T03:04:35.989Z,100252.13
2022-11-03T03:07:06.747Z,100231.84
2022-11-03T03:09:38.448Z,100223.34
2022-11-03T03:12:07.897Z,100220.41
2022-11-03T03:14:39.209Z,100218.28
2022-11-03T03:17:10.227Z,100219.94
2022-11-03T03:19:45.113Z,100229.97
2022-11-03T03:22:17.296Z,100229.41
2022-11-03T03:24:49.286Z,100227.38
2022-11-03T03:27:19.749Z,100234.97
2022-11-03T03:29:51.750Z,100220.31
2022-11-03T03:32:21.948Z,100222.34
2022-11-03T03:34:51.223Z,100222.59
2022-11-03T03:37:21.356Z,100210.41
2022-11-03T03:39:51.646Z,100211.34
2022-11-03T03:42:21.579Z,100207.84
2022-11-03T03:44:53.589Z,100206.47
2022-11-03T03:47:24.237Z,100202.28
2022-11-03T03:49:52.174Z,100196.69
2022-11-03T03:52:20.429Z,100190.78
2022-11-03T03:54:50.444Z,100194.41
2022-11-03T03:57:19.606Z,100197.56
2022-11-03T03:59:47.546Z,100199.22
2022-11-03T04:02:17.339Z,100197.56
2022-11-03T04:04:45.427Z,100182.03
2022-11-03T04:07:30.676Z,100193.19
2022-11-03T04:09:58.856Z,100186.06
2022-11-03T04:12:44.218Z,100195.81
2022-11-03T04:15:31.338Z,100185.78
2022-11-03T04:18:20.188Z,100188.22
2022-11-03T04:21:05.588Z,100187.41
2022-11-03T04:23:33.754Z,100183.31
2022-11-03T04:26:02.224Z,100180.34
2022-11-03T04:28:30.628Z,100177.16
2022-11-03T04:30:59.717Z,100174.63
2022-11-03T04:33:30.270Z,100173.59
2022-11-03T04:35:59.346Z,100177.88
2022-11-03T04:38:27.696Z,100175.03
2022-11-03T04:40:56.460Z,100177.63
2022-11-03T04:43:26.001Z,100174.31
2022-11-03T04:45:54.408Z,100175.63
2022-11-03T04:48:23.497Z,100166.25
2022-11-03T04:50:54.637Z,100166.06
2022-11-03T04:53:23.675Z,100154.66
2022-11-03T04:55:54.214Z,100153.13
2022-11-03T04:58:23.087Z,100148.28
2022-11-03T05:00:52.675Z,100155.59
2022-11-03T05:03:23.977Z,100147.06
2022-11-03T05:05:53.523Z,100152.13
2022-11-03T05:08:22.591Z,100146.84
2022-11-03T05:10:50.773Z,100154.25
2022-11-03T05:13:22.293Z,100144.78
2022-11-03T05:15:51.118Z,100138.66
2022-11-03T05:18:28.675Z,100137.81
2022-11-03T05:20:59.582Z,100143.56
2022-11-03T05:23:29.008Z,100137.19
2022-11-03T05:25:58.532Z,100131.81
2022-11-03T05:28:28.056Z,100123.72
2022-11-03T05:30:56.215Z,100114.88
2022-11-03T05:33:28.152Z,100115.88
2022-11-03T05:35:56.702Z,100111.59
2022-11-03T05:38:26.919Z,100109.91
2022-11-03T05:40:55.416Z,100109.78
2022-11-03T05:43:23.462Z,100100.06
2022-11-03T05:45:52.261Z,100105.75
2022-11-03T05:48:24.007Z,100103.88
2022-11-03T05:50:51.982Z,100103.19
2022-11-03T05:53:26.906Z,100102.44
2022-11-03T05:55:56.781Z,100094.47
2022-11-03T05:58:27.011Z,100089.00
2022-11-03T06:00:57.647Z,100086.50
2022-11-03T06:03:26.618Z,100075.81
2022-11-03T06:05:55.161Z,100074.56
2022-11-03T06:08:25.695Z,100075.28
2022-11-03T06:10:54.988Z,100061.91
2022-11-03T06:13:26.931Z,100054.09
2022-11-03T06:15:56.989Z,100054.47
2022-11-03T06:18:27.275Z,100050.75
2022-11-03T06:20:57.965Z,100050.81
2022-11-03T06:23:26.360Z,100053.66
2022-11-03T06:25:55.466Z,100045.16
2022-11-03T06:28:27.920Z,100041.91
2022-11-03T06:30:56.019Z,100037.63
2022-11-03T06:33:27.000Z,100039.06
2022-11-03T06:35:55.581Z,100042.59
2022-11-03T06:38:24.825Z,100038.13
2022-11-03T06:40:53.200Z,100033.38
2022-11-03T06:43:22.689Z,100032.41
2022-11-03T06:45:53.817Z,100035.31
2022-11-03T06:48:24.431Z,100043.88
2022-11-03T06:50:52.811Z,100043.91
2022-11-03T06:53:22.765Z,100052.13
2022-11-03T06:55:51.566Z,100055.16
2022-11-03T06:58:23.550Z,100038.91
2022-11-03T07:00:52.961Z,100034.19
2022-11-03T07:03:24.283Z,100045.50
2022-11-03T07:05:54.678Z,100039.84
2022-11-03T07:08:25.613Z,100040.00
2022-11-03T07:11:01.139Z,100033.25
2022-11-03T07:13:28.993Z,100046.59
2022-11-03T07:15:58.237Z,100040.84
2022-11-03T07:18:28.251Z,100033.31
2022-11-03T07:20:57.082Z,100023.13
2022-11-03T07:23:27.693Z,100017.63
2022-11-03T07:25:58.017Z,100012.47
2022-11-03T07:28:30.179Z,100000.44
2022-11-03T07:31:00.376Z,99998.25
2022-11-03T07:33:31.201Z,99984.25
2022-11-03T07:36:16.887Z,99992.00
2022-11-03T07:38:46.191Z,99974.97
2022-11-03T07:41:18.548Z,99982.34
2022-11-03T07:43:50.458Z,99983.03
2022-11-03T07:46:21.334Z,99975.22
2022-11-03T07:48:49.902Z,99981.13
2022-11-03T07:51:21.399Z,99984.03
2022-11-03T07:53:51.301Z,99984.16
2022-11-03T07:56:20.886Z,99980.72
2022-11-03T07:58:51.037Z,99972.94
2022-11-03T08:01:28.294Z,99975.66
2022-11-03T08:03:58.350Z,99961.97
2022-11-03T08:06:26.031Z,99964.81
2022-11-03T08:08:53.812Z,99960.66
2022-11-03T08:11:26.072Z,99962.88
2022-11-03T08:13:57.139Z,99946.84
2022-11-03T08:16:25.012Z,99940.69
2022-11-03T08:18:54.402Z,99925.22
2022-11-03T08:21:22.993Z,99925.91
2022-11-03T08:23:50.907Z,99917.41
2022-11-03T08:26:19.182Z,99920.13
2022-11-03T08:28:47.230Z,99923.19
2022-11-03T08:31:15.207Z,99912.66
2022-11-03T08:33:43.368Z,99917.72
2022-11-03T08:36:13.150Z,99908.66
2022-11-03T08:38:41.474Z,99899.84
2022-11-03T08:41:09.316Z,99892.09
2022-11-03T08:43:37.504Z,99887.53
2022-11-03T08:46:13.914Z,99895.75
2022-11-03T08:48:45.501Z,99898.72
2022-11-03T08:51:15.498Z,99893.88
2022-11-03T08:53:43.788Z,99902.78
2022-11-03T08:56:13.176Z,99895.47
2022-11-03T08:58:42.806Z,99901.00
2022-11-03T09:01:11.136Z,99902.94
2022-11-03T09:03:39.168Z,99903.16
2022-11-03T09:06:07.763Z,99903.09
2022-11-03T09:11:24.875Z,99916.69
2022-11-03T09:13:53.001Z,99920.03
2022-11-03T09:16:22.049Z,99922.88
2022-11-03T09:18:50.039Z,99918.19
2022-11-03T09:21:18.631Z,99909.88
2022-11-03T09:23:47.736Z,99899.53
2022-11-03T09:26:15.993Z,99888.50
2022-11-03T09:28:44.087Z,99876.44
2022-11-03T09:31:12.060Z,99881.97
2022-11-03T09:33:40.072Z,99878.53
2022-11-03T09:36:08.677Z,99875.13
2022-11-03T09:38:36.615Z,99862.00
2022-11-03T09:41:18.687Z,99867.53
2022-11-03T09:43:54.809Z,99856.97
2022-11-03T09:46:22.506Z,99852.63
2022-11-03T09:48:52.803Z,99846.00
2022-11-03T09:51:24.199Z,99862.25
2022-11-03T09:53:52.674Z,99854.16
2022-11-03T09:56:23.575Z,99837.34
2022-11-03T09:58:54.582Z,99821.47
2022-11-03T10:01:23.192Z,99823.97
2022-11-03T10:03:51.168Z,99821.41
2022-11-03T10:06:21.533Z,99813.03
2022-11-03T10:08:50.394Z,99807.78
2022-11-03T10:11:18.763Z,99806.22
2022-11-03T10:13:50.596Z,99796.53
2022-11-03T10:16:20.370Z,99782.69
2022-11-03T10:18:49.575Z,99783.06
2022-11-03T10:21:20.328Z,99783.66
2022-11-03T10:23:50.317Z,99786.91
2022-11-03T10:26:19.708Z,99775.13
2022-11-03T10:29:02.289Z,99752.66
2022-11-03T10:31:34.779Z,99740.03
2022-11-03T10:34:03.054Z,99733.97
2022-11-03T10:36:32.212Z,99738.44
2022-11-03T10:39:01.878Z,99736.28
2022-11-03T10:41:30.880Z,99732.31
2022-11-03T10:44:04.650Z,99737.25
2022-11-03T10:49:21.861Z,99743.81
2022-11-03T10:51:51.035Z,99746.22
2022-11-03T10:54:20.434Z,99749.81
2022-11-03T10:56:49.636Z,99738.56
2022-11-03T10:59:20.486Z,99726.47
2022-11-03T11:01:48.913Z,99710.91
2022-11-03T11:04:18.137Z,99687.88
2022-11-03T11:06:47.194Z,99680.56
2022-11-03T11:09:16.952Z,99678.13
2022-11-03T11:12:00.052Z,99675.34
2022-11-03T11:14:39.464Z,99674.84
2022-11-03T11:17:07.825Z,99665.66
2022-11-03T11:19:50.818Z,99664.34
2022-11-03T11:22:23.079Z,99651.50
2022-11-03T11:24:58.865Z,99643.81
2022-11-03T11:27:46.406Z,99634.91
2022-11-03T11:30:29.401Z,99628.78
2022-11-03T11:33:02.225Z,99622.41
2022-11-03T11:35:49.130Z,99619.13
2022-11-03T11:38:35.773Z,99616.00
2022-11-03T11:41:03.748Z,99607.09
2022-11-03T11:43:33.664Z,99609.41
2022-11-03T11:46:20.317Z,99609.41
2022-11-03T11:48:53.345Z,99610.53
2022-11-03T11:51:21.369Z,99597.53
2022-11-03T11:53:58.739Z,99608.59
2022-11-03T11:56:43.337Z,99617.97
2022-11-03T11:59:23.003Z,99621.13
2022-11-03T12:01:53.443Z,99616.00
2022-11-03T12:04:25.527Z,99612.19
2022-11-03T12:06:53.861Z,99612.56
2022-11-03T12:09:22.837Z,99613.34
2022-11-03T12:11:55.418Z,99600.59
2022-11-03T12:14:24.752Z,99594.91
2022-11-03T12:16:53.127Z,99582.19
2022-11-03T12:19:39.348Z,99560.88
2022-11-03T12:22:09.017Z,99551.13
2022-11-03T12:24:38.626Z,99553.63
2022-11-03T12:27:19.609Z,99544.97
2022-11-03T12:29:48.148Z,99534.28
2022-11-03T12:32:32.378Z,99533.25
2022-11-03T12:35:04.115Z,99512.22
2022-11-03T12:37:32.026Z,99517.81
2022-11-03T12:40:00.300Z,99520.28
2022-11-03T12:42:28.653Z,99511.56
2022-11-03T12:44:56.677Z,99511.56
2022-11-03T12:47:25.589Z,99505.22
2022-11-03T12:49:53.576Z,99501.63
2022-11-03T12:52:23.313Z,99497.16
2022-11-03T12:54:51.348Z,99498.25
2022-11-03T12:57:19.549Z,99496.22
2022-11-03T12:59:47.616Z,99486.38
2022-11-03T13:02:15.671Z,99469.34
2022-11-03T13:04:43.953Z,99468.00
2022-11-03T13:07:11.591Z,99460.81
2022-11-03T13:09:40.834Z,99455.88
2022-11-03T13:12:30.247Z,99451.41
2022-11-03T13:14:58.276Z,99439.19
2022-11-03T13:17:31.796Z,99437.38
2022-11-03T13:20:05.431Z,99442.22
2022-11-03T13:22:33.487Z,99429.09
2022-11-03T13:25:03.002Z,99415.38
2022-11-03T13:27:30.765Z,99395.69
2022-11-03T13:29:58.591Z,99405.78
2022-11-03T13:32:26.660Z,99393.50
2022-11-03T13:34:55.468Z,99370.03
2022-11-03T13:37:23.308Z,99351.16
2022-11-03T13:39:51.332Z,99350.34
2022-11-03T13:42:20.559Z,99348.88
2022-11-03T13:44:48.155Z,99353.41
2022-11-03T13:47:15.870Z,99347.31
2022-11-03T13:50:12.598Z,99337.69
2022-11-03T13:52:32.018Z,99338.31
2022-11-03T14:00:37.474Z,99317.56
2022-11-03T14:05:54.236Z,99308.16
2022-11-03T14:08:23.328Z,99288.50
2022-11-03T14:10:51.427Z,99290.69
2022-11-03T14:13:21.830Z,99296.31
2022-11-03T14:15:50.701Z,99295.13
2022-11-03T14:18:20.011Z,99284.78
2022-11-03T14:20:49.178Z,99270.47
2022-11-03T14:23:17.006Z,99264.28
2022-11-03T14:25:55.730Z,99262.16
2022-11-03T14:28:35.860Z,99257.38
2022-11-03T14:31:05.802Z,99239.03
2022-11-03T14:33:33.681Z,99241.25
2022-11-03T14:36:01.690Z,99247.00
2022-11-03T14:38:29.703Z,99246.78
2022-11-03T14:41:11.531Z,99250.03
2022-11-03T14:43:57.955Z,99240.28
2022-11-03T14:46:28.970Z,99227.63
2022-11-03T14:48:56.978Z,99231.81
2022-11-03T14:51:24.733Z,99228.38
2022-11-03T14:53:52.841Z,99224.53
2022-11-03T14:56:21.785Z,99218.78
2022-11-03T14:58:51.903Z,99218.59
2022-11-03T15:01:20.913Z,99219.59
2022-11-03T15:03:53.831Z,99218.66
2022-11-03T15:06:21.639Z,99207.50
2022-11-03T15:08:55.038Z,99194.66
2022-11-03T15:11:23.782Z,99198.50
2022-11-03T15:13:52.793Z,99190.50
2022-11-03T15:16:23.017Z,99181.97
2022-11-03T15:18:56.283Z,99176.84
2022-11-03T15:21:23.900Z,99170.59
2022-11-03T15:26:39.592Z,99161.38
2022-11-03T15:29:10.406Z,99153.31
2022-11-03T15:31:39.385Z,99148.78
2022-11-03T15:34:09.019Z,99143.13
2022-11-03T15:36:38.211Z,99137.91
2022-11-03T15:39:05.977Z,99136.34
2022-11-03T15:41:33.990Z,99130.50
2022-11-03T15:44:03.212Z,99133.53
2022-11-03T15:46:33.614Z,99137.09
2022-11-03T15:49:01.552Z,99122.72
2022-11-03T15:51:30.799Z,99126.59
2022-11-03T15:53:59.447Z,99129.16
2022-11-03T15:56:28.095Z,99130.94
2022-11-03T15:58:56.269Z,99124.53
2022-11-03T16:01:38.151Z,99129.34
2022-11-03T16:04:05.937Z,99126.16
2022-11-03T16:07:01.815Z,99117.34
2022-11-03T16:09:23.128Z,99104.44
2022-11-03T16:11:50.954Z,99100.34
2022-11-03T16:14:19.416Z,99099.84
2022-11-03T16:16:47.178Z,99091.91
2022-11-03T16:19:14.930Z,99083.81
2022-11-03T16:21:44.013Z,99079.66
2022-11-03T16:24:13.521Z,99074.13
2022-11-03T16:26:41.290Z,99061.09
2022-11-03T16:29:09.378Z,99071.16
2022-11-03T16:31:37.196Z,99070.72
2022-11-03T16:34:05.616Z,99066.53
2022-11-03T16:36:33.342Z,99069.22
2022-11-03T16:39:02.506Z,99066.75
2022-11-03T16:41:30.194Z,99059.44
2022-11-03T16:43:58.011Z,99064.00
2022-11-03T16:46:25.955Z,99064.81
2022-11-03T16:48:55.529Z,99061.78
2022-11-03T16:51:24.477Z,99059.31
2022-11-03T16:53:55.110Z,99060.81
2022-11-03T16:56:24.427Z,99066.28
2022-11-03T16:58:52.200Z,99059.09
2022-11-03T17:01:21.229Z,99047.66
2022-11-03T17:03:48.945Z,99052.16
2022-11-03T17:06:16.684Z,99048.38
2022-11-03T17:08:52.733Z,99044.53
2022-11-03T17:11:36.242Z,99047.13
2022-11-03T17:14:08.080Z,99043.72
2022-11-03T17:16:37.175Z,99027.13
2022-11-03T17:19:05.152Z,99023.84
2022-11-03T17:21:34.760Z,99016.56
2022-11-03T17:24:03.828Z,99014.81
2022-11-03T17:26:40.371Z,98995.88
2022-11-03T17:29:16.611Z,98992.59
2022-11-03T17:31:44.818Z,98973.22
2022-11-03T17:34:12.976Z,98955.47
2022-11-03T17:36:41.344Z,98952.50
2022-11-03T17:39:09.797Z,98953.44
2022-11-03T17:41:37.894Z,98949.34
2022-11-03T17:44:09.663Z,98941.53
2022-11-03T17:46:38.763Z,98947.00
2022-11-03T17:49:07.927Z,98937.81
2022-11-03T17:51:39.051Z,98931.22
2022-11-03T17:54:08.429Z,98934.72
2022-11-03T17:56:36.531Z,98938.94
2022-11-03T17:59:04.686Z,98936.88
2022-11-03T18:01:32.574Z,98929.72
2022-11-03T18:04:02.793Z,98911.28
2022-11-03T18:06:30.776Z,98910.16
2022-11-03T18:08:59.307Z,98895.97
2022-11-03T18:11:46.456Z,98888.97
2022-11-03T18:14:18.234Z,98885.28
2022-11-03T18:16:46.299Z,98882.53
2022-11-03T18:19:16.270Z,98870.34
2022-11-03T18:21:44.043Z,98869.66
2022-11-03T18:24:13.011Z,98868.94
2022-11-03T18:26:41.210Z,98859.91
2022-11-03T18:29:09.828Z,98854.69
2022-11-03T18:31:38.950Z,98854.66
2022-11-03T18:34:07.635Z,98854.22
2022-11-03T18:36:38.262Z,98868.03
2022-11-03T18:39:06.478Z,98873.09
2022-11-03T18:41:39.207Z,98878.88
2022-11-03T18:44:18.295Z,98895.22
2022-11-03T18:46:46.124Z,98911.00
2022-11-03T18:49:14.201Z,98911.69
2022-11-03T18:51:45.971Z,98914.56
2022-11-03T18:54:15.569Z,98919.47
2022-11-03T18:56:43.490Z,98903.16
2022-11-03T18:59:17.341Z,98901.63
2022-11-03T19:01:47.607Z,98900.41
2022-11-03T19:04:17.619Z,98891.03
2022-11-03T19:06:47.940Z,98880.34
2022-11-03T19:09:17.139Z,98878.00
2022-11-03T19:11:45.649Z,98877.00
2022-11-03T19:14:15.163Z,98875.38
2022-11-03T19:16:55.726Z,98857.63
2022-11-03T19:19:31.454Z,98839.41
2022-11-03T19:22:00.635Z,98829.75
2022-11-03T19:24:28.215Z,98842.69
2022-11-03T19:26:58.705Z,98839.75
2022-11-03T19:29:28.803Z,98842.56
2022-11-03T19:31:56.860Z,98845.31
2022-11-03T19:34:27.621Z,98836.28
2022-11-03T19:36:57.984Z,98830.25
2022-11-03T19:39:29.333Z,98831.06
2022-11-03T19:42:14.926Z,98827.78
2022-11-03T19:44:42.558Z,98817.88
2022-11-03T19:47:11.816Z,98816.44
2022-11-03T19:49:39.542Z,98815.56
2022-11-03T19:52:09.293Z,98825.44
2022-11-03T19:54:41.357Z,98823.75
2022-11-03T19:57:11.489Z,98826.63
2022-11-03T19:59:39.154Z,98828.16
2022-11-03T20:02:08.193Z,98823.81
2022-11-03T20:04:37.039Z,98819.97
2022-11-03T20:07:05.591Z,98810.69
2022-11-03T20:09:34.553Z,98807.16
2022-11-03T20:12:05.512Z,98804.09
2022-11-03T20:14:33.475Z,98802.09
2022-11-03T20:17:09.953Z,98794.06
2022-11-03T20:19:37.699Z,98790.22
2022-11-03T20:22:06.246Z,98783.56
2022-11-03T20:24:34.477Z,98776.34
2022-11-03T20:27:02.276Z,98776.19
2022-11-03T20:29:34.763Z,98771.16
2022-11-03T20:32:03.878Z,98770.06
2022-11-03T20:34:31.671Z,98762.53
2022-11-03T20:37:04.666Z,98754.72
2022-11-03T20:39:33.488Z,98749.75
2022-11-03T20:42:01.217Z,98760.19
2022-11-03T20:44:28.831Z,98760.75
2022-11-03T20:46:57.967Z,98739.22
2022-11-03T20:49:26.779Z,98738.97
2022-11-03T20:51:54.974Z,98733.63
2022-11-03T20:54:23.042Z,98726.50
2022-11-03T20:56:51.007Z,98721.59
2022-11-03T20:59:21.365Z,98703.91
2022-11-03T21:01:50.180Z,98699.16
2022-11-03T21:04:21.032Z,98695.06
2022-11-03T21:06:48.943Z,98697.66
2022-11-03T21:09:17.837Z,98694.63
2022-11-03T21:11:46.344Z,98692.19
2022-11-03T21:14:22.455Z,98677.66
2022-11-03T21:17:08.249Z,98681.78
2022-11-03T21:19:54.803Z,98683.84
2022-11-03T21:22:52.091Z,98686.81
2022-11-03T21:25:13.411Z,98699.97
2022-11-03T21:27:42.146Z,98691.63
2022-11-03T21:30:12.471Z,98699.41
2022-11-03T21:32:40.217Z,98702.03
2022-11-03T21:35:11.937Z,98710.03
2022-11-03T21:37:39.939Z,98721.13
2022-11-03T21:40:08.191Z,98725.25
2022-11-03T21:42:53.528Z,98738.22
2022-11-03T21:45:21.649Z,98731.25
2022-11-03T21:48:03.509Z,98717.84
2022-11-03T21:50:32.788Z,98697.16
2022-11-03T21:53:03.117Z,98690.22
2022-11-03T21:55:30.688Z,98690.47
2022-11-03T21:57:58.411Z,98711.06
2022-11-03T22:00:26.027Z,98722.53
2022-11-03T22:02:54.008Z,98739.25
2022-11-03T22:05:21.643Z,98745.78
2022-11-03T22:07:50.675Z,98758.41
2022-11-03T22:10:18.796Z,98768.22
2022-11-03T22:12:46.595Z,98768.53
2022-11-03T22:15:33.021Z,98771.59
2022-11-03T22:18:01.249Z,98783.38
2022-11-03T22:20:46.557Z,98780.25
2022-11-03T22:23:34.233Z,98772.06
2022-11-03T22:26:19.975Z,98765.22
2022-11-03T22:29:07.696Z,98774.66
2022-11-03T22:31:43.930Z,98766.47
2022-11-03T22:34:29.233Z,98758.81
2022-11-03T22:36:59.569Z,98759.03
2022-11-03T22:39:46.384Z,98766.59
2022-11-03T22:42:31.890Z,98785.81
2022-11-03T22:45:17.612Z,98786.19
2022-11-03T22:47:45.335Z,98784.78
2022-11-03T22:50:12.877Z,98781.81
2022-11-03T22:52:40.707Z,98785.94
2022-11-03T22:55:09.240Z,98791.69
2022-11-03T22:57:37.030Z,98800.03
2022-11-03T23:00:07.183Z,98803.59
2022-11-03T23:02:35.118Z,98800.31
2022-11-03T23:27:11.352Z,98843.69
2022-11-03T23:29:39.312Z,98843.69
2022-11-03T23:32:07.116Z,98835.75
2022-11-03T23:34:36.015Z,98837.66
2022-11-03T23:37:04.101Z,98843.56
2022-11-03T23:39:32.104Z,98840.41
2022-11-03T23:41:59.871Z,98856.97
2022-11-03T23:44:49.274Z,98862.84
2022-11-03T23:47:34.595Z,98861.06
2022-11-03T23:50:02.544Z,98870.25
2022-11-03T23:52:30.379Z,98864.78
2022-11-03T23:54:57.941Z,98876.81
2022-11-03T23:57:42.924Z,98859.69
